sensor_id;sensor_type;location;lat;lon;timestamp;pressure;altitude;pressure_sealevel;temperature;humidity
52441;BME280;39611;46.062;8.950;2023-02-02T00:02:00;96902.19;;;7.48;30.84
52441;BME280;39611;46.062;8.950;2023-02-02T00:04:32;96900.13;;;7.50;29.82
52441;BME280;39611;46.062;8.950;2023-02-02T00:07:00;96910.66;;;7.50;31.13
52441;BME280;39611;46.062;8.950;2023-02-02T00:09:28;96910.34;;;7.30;32.26
52441;BME280;39611;46.062;8.950;2023-02-02T00:11:56;96905.66;;;6.98;33.97
52441;BME280;39611;46.062;8.950;2023-02-02T00:14:23;96898.06;;;6.85;33.80
52441;BME280;39611;46.062;8.950;2023-02-02T00:16:52;96895.84;;;6.76;33.96
52441;BME280;39611;46.062;8.950;2023-02-02T00:19:22;96899.41;;;6.87;33.64
52441;BME280;39611;46.062;8.950;2023-02-02T00:21:49;96892.88;;;6.90;34.03
52441;BME280;39611;46.062;8.950;2023-02-02T00:24:17;96893.06;;;7.00;32.96
52441;BME280;39611;46.062;8.950;2023-02-02T00:26:51;96891.72;;;7.14;32.40
52441;BME280;39611;46.062;8.950;2023-02-02T00:29:21;96902.38;;;7.25;32.18
52441;BME280;39611;46.062;8.950;2023-02-02T00:31:48;96900.09;;;7.11;33.16
52441;BME280;39611;46.062;8.950;2023-02-02T00:34:15;96893.38;;;7.37;31.59
52441;BME280;39611;46.062;8.950;2023-02-02T00:36:43;96891.09;;;7.63;30.44
52441;BME280;39611;46.062;8.950;2023-02-02T00:39:13;96886.84;;;7.62;30.42
52441;BME280;39611;46.062;8.950;2023-02-02T00:41:41;96885.25;;;7.61;30.91
52441;BME280;39611;46.062;8.950;2023-02-02T00:44:07;96880.28;;;7.64;30.58
52441;BME280;39611;46.062;8.950;2023-02-02T00:46:52;96898.44;;;7.83;29.89
52441;BME280;39611;46.062;8.950;2023-02-02T00:49:19;96886.13;;;8.10;28.69
52441;BME280;39611;46.062;8.950;2023-02-02T00:51:45;96887.19;;;8.09;29.26
52441;BME280;39611;46.062;8.950;2023-02-02T00:54:12;96884.47;;;8.04;29.19
52441;BME280;39611;46.062;8.950;2023-02-02T00:56:40;96882.19;;;7.91;29.83
52441;BME280;39611;46.062;8.950;2023-02-02T00:59:07;96880.66;;;7.95;29.12
52441;BME280;39611;46.062;8.950;2023-02-02T01:01:34;96882.88;;;8.03;29.25
52441;BME280;39611;46.062;8.950;2023-02-02T01:04:01;96888.94;;;8.04;29.36
52441;BME280;39611;46.062;8.950;2023-02-02T01:06:27;96888.13;;;8.03;29.02
52441;BME280;39611;46.062;8.950;2023-02-02T01:08:54;96867.97;;;8.14;28.60
52441;BME280;39611;46.062;8.950;2023-02-02T01:11:20;96882.59;;;8.27;28.32
52441;BME280;39611;46.062;8.950;2023-02-02T01:13:47;96882.22;;;8.40;27.82
52441;BME280;39611;46.062;8.950;2023-02-02T01:16:13;96881.75;;;8.21;28.50
52441;BME280;39611;46.062;8.950;2023-02-02T01:18:41;96879.13;;;8.21;28.53
52441;BME280;39611;46.062;8.950;2023-02-02T01:21:10;96882.47;;;8.17;29.18
52441;BME280;39611;46.062;8.950;2023-02-02T01:23:37;96885.72;;;8.24;28.38
52441;BME280;39611;46.062;8.950;2023-02-02T01:26:07;96890.28;;;8.28;28.55
52441;BME280;39611;46.062;8.950;2023-02-02T01:28:34;96892.13;;;8.28;28.66
52441;BME280;39611;46.062;8.950;2023-02-02T01:31:07;96895.94;;;8.15;29.03
52441;BME280;39611;46.062;8.950;2023-02-02T01:33:35;96896.88;;;8.31;28.44
52441;BME280;39611;46.062;8.950;2023-02-02T01:36:07;96895.19;;;8.20;29.00
52441;BME280;39611;46.062;8.950;2023-02-02T01:38:34;96896.38;;;8.34;28.86
52441;BME280;39611;46.062;8.950;2023-02-02T01:41:01;96894.97;;;8.26;28.94
52441;BME280;39611;46.062;8.950;2023-02-02T01:46:16;96892.00;;;8.18;29.55
52441;BME280;39611;46.062;8.950;2023-02-02T01:49:09;96891.28;;;8.22;29.31
52441;BME280;39611;46.062;8.950;2023-02-02T01:51:49;96889.81;;;8.37;28.75
52441;BME280;39611;46.062;8.950;2023-02-02T01:54:25;96885.75;;;8.46;28.68
52441;BME280;39611;46.062;8.950;2023-02-02T01:56:58;96892.97;;;8.34;28.89
52441;BME280;39611;46.062;8.950;2023-02-02T01:59:27;96889.72;;;8.48;28.58
52441;BME280;39611;46.062;8.950;2023-02-02T02:01:54;96883.06;;;8.41;28.95
52441;BME280;39611;46.062;8.950;2023-02-02T02:04:22;96888.19;;;8.30;29.22
52441;BME280;39611;46.062;8.950;2023-02-02T02:06:50;96879.97;;;8.49;28.74
52441;BME280;39611;46.062;8.950;2023-02-02T02:09:19;96883.50;;;8.60;28.41
52441;BME280;39611;46.062;8.950;2023-02-02T02:11:45;96874.00;;;8.59;28.66
52441;BME280;39611;46.062;8.950;2023-02-02T02:14:12;96883.34;;;8.44;28.96
52441;BME280;39611;46.062;8.950;2023-02-02T02:17:24;96877.63;;;8.52;28.80
52441;BME280;39611;46.062;8.950;2023-02-02T02:33:03;96891.63;;;8.31;29.73
52441;BME280;39611;46.062;8.950;2023-02-02T02:35:41;96892.78;;;8.40;29.38
52441;BME280;39611;46.062;8.950;2023-02-02T02:38:30;96892.47;;;8.37;29.72
52441;BME280;39611;46.062;8.950;2023-02-02T02:41:03;96890.63;;;8.37;29.75
52441;BME280;39611;46.062;8.950;2023-02-02T02:43:38;96890.38;;;8.39;29.56
52441;BME280;39611;46.062;8.950;2023-02-02T02:46:06;96888.84;;;8.43;29.70
52441;BME280;39611;46.062;8.950;2023-02-02T02:48:34;96895.97;;;8.42;29.43
52441;BME280;39611;46.062;8.950;2023-02-02T02:54:04;96903.31;;;8.40;29.51
52441;BME280;39611;46.062;8.950;2023-02-02T02:56:38;96889.59;;;8.38;29.93
52441;BME280;39611;46.062;8.950;2023-02-02T02:59:24;96913.16;;;8.23;30.38
52441;BME280;39611;46.062;8.950;2023-02-02T03:02:18;96893.88;;;8.44;29.63
52441;BME280;39611;46.062;8.950;2023-02-02T03:07:54;96901.16;;;8.37;29.94
52441;BME280;39611;46.062;8.950;2023-02-02T03:10:27;96909.75;;;8.27;30.53
52441;BME280;39611;46.062;8.950;2023-02-02T03:12:55;96899.47;;;8.26;30.61
52441;BME280;39611;46.062;8.950;2023-02-02T03:15:22;96904.97;;;8.24;30.55
52441;BME280;39611;46.062;8.950;2023-02-02T03:17:51;96911.00;;;8.20;30.88
52441;BME280;39611;46.062;8.950;2023-02-02T03:20:18;96901.38;;;8.30;30.23
52441;BME280;39611;46.062;8.950;2023-02-02T03:22:45;96899.53;;;8.31;30.43
52441;BME280;39611;46.062;8.950;2023-02-02T03:25:11;96903.50;;;8.34;30.19
52441;BME280;39611;46.062;8.950;2023-02-02T03:27:38;96915.34;;;8.31;30.22
52441;BME280;39611;46.062;8.950;2023-02-02T03:30:10;96904.69;;;8.21;30.75
52441;BME280;39611;46.062;8.950;2023-02-02T03:32:37;96910.25;;;8.24;30.10
52441;BME280;39611;46.062;8.950;2023-02-02T03:35:05;96893.13;;;8.27;30.05
52441;BME280;39611;46.062;8.950;2023-02-02T03:37:31;96902.22;;;8.36;29.52
52441;BME280;39611;46.062;8.950;2023-02-02T03:39:58;96908.16;;;8.26;30.11
52441;BME280;39611;46.062;8.950;2023-02-02T03:42:25;96900.81;;;8.28;30.01
52441;BME280;39611;46.062;8.950;2023-02-02T03:44:52;96901.38;;;8.30;30.29
52441;BME280;39611;46.062;8.950;2023-02-02T03:47:18;96900.50;;;8.25;30.37
52441;BME280;39611;46.062;8.950;2023-02-02T03:49:44;96901.13;;;8.10;30.75
52441;BME280;39611;46.062;8.950;2023-02-02T03:52:11;96899.84;;;8.13;30.76
52441;BME280;39611;46.062;8.950;2023-02-02T03:54:37;96904.56;;;8.10;30.75
52441;BME280;39611;46.062;8.950;2023-02-02T03:57:04;96912.69;;;8.09;30.86
52441;BME280;39611;46.062;8.950;2023-02-02T03:59:30;96911.41;;;8.12;30.79
52441;BME280;39611;46.062;8.950;2023-02-02T04:01:57;96906.81;;;8.24;29.85
52441;BME280;39611;46.062;8.950;2023-02-02T04:04:23;96893.91;;;8.22;30.05
52441;BME280;39611;46.062;8.950;2023-02-02T04:06:50;96906.69;;;8.14;30.58
52441;BME280;39611;46.062;8.950;2023-02-02T04:09:16;96915.34;;;8.09;30.82
52441;BME280;39611;46.062;8.950;2023-02-02T04:11:43;96899.28;;;8.10;30.46
52441;BME280;39611;46.062;8.950;2023-02-02T04:14:09;96904.84;;;8.14;30.17
52441;BME280;39611;46.062;8.950;2023-02-02T04:16:36;96908.91;;;8.22;30.46
52441;BME280;39611;46.062;8.950;2023-02-02T04:19:03;96892.91;;;8.06;31.31
52441;BME280;39611;46.062;8.950;2023-02-02T04:21:30;96904.91;;;8.19;30.40
52441;BME280;39611;46.062;8.950;2023-02-02T04:23:56;96920.00;;;8.24;30.44
52441;BME280;39611;46.062;8.950;2023-02-02T04:26:23;96901.84;;;8.27;29.99
52441;BME280;39611;46.062;8.950;2023-02-02T04:28:52;96900.19;;;8.21;30.67
52441;BME280;39611;46.062;8.950;2023-02-02T04:31:19;96926.84;;;8.25;30.47
52441;BME280;39611;46.062;8.950;2023-02-02T04:33:45;96912.28;;;8.39;30.03
52441;BME280;39611;46.062;8.950;2023-02-02T04:36:12;96894.31;;;8.36;30.12
52441;BME280;39611;46.062;8.950;2023-02-02T04:38:38;96909.41;;;8.41;29.84
52441;BME280;39611;46.062;8.950;2023-02-02T04:41:07;96909.44;;;8.24;30.73
52441;BME280;39611;46.062;8.950;2023-02-02T04:43:34;96908.66;;;8.23;30.56
52441;BME280;39611;46.062;8.950;2023-02-02T04:46:01;96921.56;;;8.25;30.61
52441;BME280;39611;46.062;8.950;2023-02-02T04:48:28;96924.19;;;8.20;30.77
52441;BME280;39611;46.062;8.950;2023-02-02T04:51:04;96911.03;;;8.25;30.38
52441;BME280;39611;46.062;8.950;2023-02-02T04:53:31;96923.78;;;8.33;30.14
52441;BME280;39611;46.062;8.950;2023-02-02T04:56:05;96920.47;;;8.43;29.88
52441;BME280;39611;46.062;8.950;2023-02-02T04:58:32;96916.25;;;8.42;29.85
52441;BME280;39611;46.062;8.950;2023-02-02T05:00:58;96933.28;;;8.34;30.29
52441;BME280;39611;46.062;8.950;2023-02-02T05:03:25;96916.25;;;8.42;29.79
52441;BME280;39611;46.062;8.950;2023-02-02T05:06:00;96939.38;;;8.57;29.33
52441;BME280;39611;46.062;8.950;2023-02-02T05:08:28;96936.22;;;8.38;30.19
52441;BME280;39611;46.062;8.950;2023-02-02T05:10:54;96945.69;;;8.34;30.08
52441;BME280;39611;46.062;8.950;2023-02-02T05:13:21;96949.66;;;8.36;30.23
52441;BME280;39611;46.062;8.950;2023-02-02T05:15:47;96941.84;;;8.41;29.73
52441;BME280;39611;46.062;8.950;2023-02-02T05:18:14;96950.16;;;8.33;30.07
52441;BME280;39611;46.062;8.950;2023-02-02T05:20:41;96955.50;;;8.38;29.81
52441;BME280;39611;46.062;8.950;2023-02-02T05:23:07;96938.22;;;8.25;29.96
52441;BME280;39611;46.062;8.950;2023-02-02T05:25:33;96952.38;;;8.41;29.37
52441;BME280;39611;46.062;8.950;2023-02-02T05:28:00;96959.06;;;8.49;29.12
52441;BME280;39611;46.062;8.950;2023-02-02T05:30:27;96954.56;;;8.49;29.32
52441;BME280;39611;46.062;8.950;2023-02-02T05:32:53;96966.13;;;8.43;29.36
52441;BME280;39611;46.062;8.950;2023-02-02T05:35:20;96966.72;;;8.50;28.86
52441;BME280;39611;46.062;8.950;2023-02-02T05:37:46;96950.88;;;8.50;29.19
52441;BME280;39611;46.062;8.950;2023-02-02T05:40:13;96959.06;;;8.49;29.05
52441;BME280;39611;46.062;8.950;2023-02-02T05:42:39;96963.22;;;8.45;29.34
52441;BME280;39611;46.062;8.950;2023-02-02T05:45:06;96957.41;;;8.43;29.29
52441;BME280;39611;46.062;8.950;2023-02-02T05:47:33;96946.63;;;8.44;28.76
52441;BME280;39611;46.062;8.950;2023-02-02T05:50:01;96958.44;;;8.42;29.23
52441;BME280;39611;46.062;8.950;2023-02-02T05:52:32;96959.25;;;8.42;28.97
52441;BME280;39611;46.062;8.950;2023-02-02T05:55:00;96954.66;;;8.38;29.19
52441;BME280;39611;46.062;8.950;2023-02-02T05:57:26;96969.47;;;8.39;29.13
52441;BME280;39611;46.062;8.950;2023-02-02T05:59:53;96967.84;;;8.38;29.05
52441;BME280;39611;46.062;8.950;2023-02-02T06:02:20;96973.13;;;8.38;29.38
52441;BME280;39611;46.062;8.950;2023-02-02T06:04:46;96970.28;;;8.39;28.92
52441;BME280;39611;46.062;8.950;2023-02-02T06:07:12;96968.81;;;8.48;28.65
52441;BME280;39611;46.062;8.950;2023-02-02T06:09:39;96973.75;;;8.45;28.96
52441;BME280;39611;46.062;8.950;2023-02-02T06:12:05;96971.63;;;8.42;29.11
52441;BME280;39611;46.062;8.950;2023-02-02T06:14:32;96964.84;;;8.46;28.67
52441;BME280;39611;46.062;8.950;2023-02-02T06:16:58;96965.56;;;8.41;28.95
52441;BME280;39611;46.062;8.950;2023-02-02T06:19:25;96963.94;;;8.40;29.24
52441;BME280;39611;46.062;8.950;2023-02-02T06:21:51;96972.22;;;8.27;29.30
52441;BME280;39611;46.062;8.950;2023-02-02T06:24:18;96976.81;;;8.37;28.93
52441;BME280;39611;46.062;8.950;2023-02-02T06:26:44;96964.50;;;8.42;28.87
52441;BME280;39611;46.062;8.950;2023-02-02T06:29:12;96967.31;;;8.36;29.30
52441;BME280;39611;46.062;8.950;2023-02-02T06:31:39;96981.63;;;8.40;29.44
52441;BME280;39611;46.062;8.950;2023-02-02T06:34:05;96984.13;;;8.51;28.94
52441;BME280;39611;46.062;8.950;2023-02-02T06:36:32;96982.72;;;8.44;28.95
52441;BME280;39611;46.062;8.950;2023-02-02T06:38:59;96983.22;;;8.41;28.95
52441;BME280;39611;46.062;8.950;2023-02-02T06:41:25;96971.88;;;8.40;28.96
52441;BME280;39611;46.062;8.950;2023-02-02T06:43:52;96979.94;;;8.34;29.38
52441;BME280;39611;46.062;8.950;2023-02-02T06:46:18;96982.81;;;8.32;29.59
52441;BME280;39611;46.062;8.950;2023-02-02T06:48:45;96983.81;;;8.26;29.21
52441;BME280;39611;46.062;8.950;2023-02-02T06:51:11;96990.34;;;8.23;29.49
52441;BME280;39611;46.062;8.950;2023-02-02T06:53:38;96985.25;;;8.17;29.67
52441;BME280;39611;46.062;8.950;2023-02-02T06:56:06;96989.63;;;8.28;29.32
52441;BME280;39611;46.062;8.950;2023-02-02T06:58:33;96996.94;;;8.43;29.30
52441;BME280;39611;46.062;8.950;2023-02-02T07:01:04;97010.84;;;8.38;29.16
52441;BME280;39611;46.062;8.950;2023-02-02T07:03:31;96997.03;;;8.31;29.52
52441;BME280;39611;46.062;8.950;2023-02-02T07:05:58;96999.63;;;8.26;30.05
52441;BME280;39611;46.062;8.950;2023-02-02T07:08:24;96998.00;;;8.25;30.46
52441;BME280;39611;46.062;8.950;2023-02-02T07:10:51;97004.03;;;8.20;30.22
52441;BME280;39611;46.062;8.950;2023-02-02T07:13:37;97010.03;;;8.16;30.02
52441;BME280;39611;46.062;8.950;2023-02-02T07:16:05;97016.28;;;8.09;30.44
52441;BME280;39611;46.062;8.950;2023-02-02T07:18:32;97015.72;;;8.07;30.80
52441;BME280;39611;46.062;8.950;2023-02-02T07:20:59;97022.00;;;8.06;30.70
52441;BME280;39611;46.062;8.950;2023-02-02T07:23:27;97016.69;;;8.01;30.91
52441;BME280;39611;46.062;8.950;2023-02-02T07:26:05;97007.41;;;8.16;29.80
52441;BME280;39611;46.062;8.950;2023-02-02T07:28:32;97011.63;;;8.17;30.25
52441;BME280;39611;46.062;8.950;2023-02-02T07:30:59;97019.06;;;8.03;30.91
52441;BME280;39611;46.062;8.950;2023-02-02T07:33:25;97020.59;;;7.99;31.18
52441;BME280;39611;46.062;8.950;2023-02-02T07:35:52;97018.28;;;8.02;31.01
52441;BME280;39611;46.062;8.950;2023-02-02T07:38:18;97021.16;;;8.01;31.13
52441;BME280;39611;46.062;8.950;2023-02-02T07:40:45;97021.94;;;8.01;31.12
52441;BME280;39611;46.062;8.950;2023-02-02T07:43:12;97019.25;;;7.96;31.55
52441;BME280;39611;46.062;8.950;2023-02-02T07:45:38;97010.88;;;7.99;31.28
52441;BME280;39611;46.062;8.950;2023-02-02T07:48:05;97022.94;;;7.95;31.78
52441;BME280;39611;46.062;8.950;2023-02-02T07:50:32;97017.78;;;8.05;30.93
52441;BME280;39611;46.062;8.950;2023-02-02T07:52:58;97023.06;;;8.05;31.07
52441;BME280;39611;46.062;8.950;2023-02-02T07:55:26;97017.78;;;8.05;31.78
52441;BME280;39611;46.062;8.950;2023-02-02T07:57:52;97012.94;;;7.97;31.97
52441;BME280;39611;46.062;8.950;2023-02-02T08:00:21;97024.56;;;8.01;31.75
52441;BME280;39611;46.062;8.950;2023-02-02T08:02:48;97022.44;;;7.98;32.41
52441;BME280;39611;46.062;8.950;2023-02-02T08:05:15;97027.88;;;7.92;32.78
52441;BME280;39611;46.062;8.950;2023-02-02T08:07:42;97025.00;;;7.93;32.15
52441;BME280;39611;46.062;8.950;2023-02-02T08:10:10;97022.16;;;8.17;31.04
52441;BME280;39611;46.062;8.950;2023-02-02T08:12:36;97018.50;;;8.18;31.47
52441;BME280;39611;46.062;8.950;2023-02-02T08:15:03;97026.13;;;8.19;30.91
52441;BME280;39611;46.062;8.950;2023-02-02T08:17:30;97021.19;;;8.23;31.22
52441;BME280;39611;46.062;8.950;2023-02-02T08:19:56;97023.06;;;8.27;31.45
52441;BME280;39611;46.062;8.950;2023-02-02T08:22:23;97017.56;;;8.29;30.99
52441;BME280;39611;46.062;8.950;2023-02-02T08:24:49;97028.97;;;8.35;31.17
52441;BME280;39611;46.062;8.950;2023-02-02T08:27:16;97026.34;;;8.35;31.74
52441;BME280;39611;46.062;8.950;2023-02-02T08:29:42;97019.53;;;8.39;31.29
52441;BME280;39611;46.062;8.950;2023-02-02T08:32:09;97021.72;;;8.42;30.85
52441;BME280;39611;46.062;8.950;2023-02-02T08:34:35;97027.91;;;8.52;30.85
52441;BME280;39611;46.062;8.950;2023-02-02T08:37:03;97035.09;;;8.57;30.93
52441;BME280;39611;46.062;8.950;2023-02-02T08:39:29;97035.88;;;8.58;31.01
52441;BME280;39611;46.062;8.950;2023-02-02T08:41:56;97030.59;;;8.58;30.67
52441;BME280;39611;46.062;8.950;2023-02-02T08:44:23;97030.22;;;8.71;30.25
52441;BME280;39611;46.062;8.950;2023-02-02T08:46:53;97033.72;;;8.77;29.98
52441;BME280;39611;46.062;8.950;2023-02-02T08:49:20;97037.47;;;8.81;29.81
52441;BME280;39611;46.062;8.950;2023-02-02T08:51:46;97035.66;;;8.86;29.88
52441;BME280;39611;46.062;8.950;2023-02-02T08:54:13;97028.59;;;8.92;30.30
52441;BME280;39611;46.062;8.950;2023-02-02T08:56:39;97025.97;;;8.92;29.84
52441;BME280;39611;46.062;8.950;2023-02-02T08:59:06;97025.69;;;8.88;30.20
52441;BME280;39611;46.062;8.950;2023-02-02T09:01:33;97027.34;;;9.00;29.76
52441;BME280;39611;46.062;8.950;2023-02-02T09:04:05;97022.69;;;9.07;29.94
52441;BME280;39611;46.062;8.950;2023-02-02T09:06:34;97023.25;;;9.09;29.44
52441;BME280;39611;46.062;8.950;2023-02-02T09:09:02;97028.56;;;9.14;29.38
52441;BME280;39611;46.062;8.950;2023-02-02T09:11:29;97023.88;;;9.21;29.61
52441;BME280;39611;46.062;8.950;2023-02-02T09:13:57;97023.38;;;9.24;29.08
52441;BME280;39611;46.062;8.950;2023-02-02T09:16:25;97029.41;;;9.19;29.52
52441;BME280;39611;46.062;8.950;2023-02-02T09:18:53;97022.84;;;9.22;29.53
52441;BME280;39611;46.062;8.950;2023-02-02T09:21:20;97028.94;;;9.28;29.20
52441;BME280;39611;46.062;8.950;2023-02-02T09:23:48;97028.16;;;9.27;29.52
52441;BME280;39611;46.062;8.950;2023-02-02T09:26:20;97013.44;;;9.31;29.44
52441;BME280;39611;46.062;8.950;2023-02-02T09:28:51;97020.88;;;9.39;30.12
52441;BME280;39611;46.062;8.950;2023-02-02T09:31:18;97007.81;;;9.55;28.65
52441;BME280;39611;46.062;8.950;2023-02-02T09:33:44;97013.13;;;9.60;28.72
52441;BME280;39611;46.062;8.950;2023-02-02T09:36:14;97017.63;;;9.65;28.55
52441;BME280;39611;46.062;8.950;2023-02-02T09:38:41;97009.06;;;9.84;27.87
52441;BME280;39611;46.062;8.950;2023-02-02T09:49:09;97013.72;;;10.15;27.14
52441;BME280;39611;46.062;8.950;2023-02-02T09:51:42;97024.00;;;10.11;27.30
52441;BME280;39611;46.062;8.950;2023-02-02T09:54:23;97017.09;;;10.05;27.59
52441;BME280;39611;46.062;8.950;2023-02-02T09:56:54;97034.88;;;10.15;27.20
52441;BME280;39611;46.062;8.950;2023-02-02T09:59:27;97035.25;;;10.34;27.09
52441;BME280;39611;46.062;8.950;2023-02-02T10:01:57;97032.28;;;10.25;27.38
52441;BME280;39611;46.062;8.950;2023-02-02T10:04:34;97032.00;;;10.21;27.16
52441;BME280;39611;46.062;8.950;2023-02-02T10:07:17;97034.44;;;10.28;27.17
52441;BME280;39611;46.062;8.950;2023-02-02T10:15:36;97034.00;;;10.46;26.81
52441;BME280;39611;46.062;8.950;2023-02-02T10:18:39;97040.59;;;10.44;27.04
52441;BME280;39611;46.062;8.950;2023-02-02T10:24:15;97030.38;;;10.68;26.45
52441;BME280;39611;46.062;8.950;2023-02-02T10:26:49;97032.72;;;10.59;26.73
52441;BME280;39611;46.062;8.950;2023-02-02T10:32:21;97024.78;;;10.54;27.13
52441;BME280;39611;46.062;8.950;2023-02-02T10:37:43;97028.09;;;11.07;25.74
52441;BME280;39611;46.062;8.950;2023-02-02T10:45:55;97018.03;;;10.99;26.16
52441;BME280;39611;46.062;8.950;2023-02-02T10:48:25;97016.94;;;10.85;26.26
52441;BME280;39611;46.062;8.950;2023-02-02T10:51:05;97010.63;;;11.01;26.15
52441;BME280;39611;46.062;8.950;2023-02-02T10:53:36;97011.69;;;10.95;26.69
52441;BME280;39611;46.062;8.950;2023-02-02T10:56:08;97007.41;;;10.94;26.44
52441;BME280;39611;46.062;8.950;2023-02-02T10:58:47;97000.06;;;11.22;26.07
52441;BME280;39611;46.062;8.950;2023-02-02T11:01:15;97002.19;;;11.25;26.21
52441;BME280;39611;46.062;8.950;2023-02-02T11:03:43;96983.09;;;11.12;26.89
52441;BME280;39611;46.062;8.950;2023-02-02T11:06:10;96982.59;;;11.15;26.48
52441;BME280;39611;46.062;8.950;2023-02-02T11:08:57;96986.28;;;11.25;26.67
52441;BME280;39611;46.062;8.950;2023-02-02T11:11:37;96978.88;;;11.17;26.43
52441;BME280;39611;46.062;8.950;2023-02-02T11:16:38;96974.91;;;11.34;25.92
52441;BME280;39611;46.062;8.950;2023-02-02T11:21:53;96973.84;;;11.20;26.21
52441;BME280;39611;46.062;8.950;2023-02-02T11:29:48;96956.63;;;11.33;26.01
52441;BME280;39611;46.062;8.950;2023-02-02T11:32:32;96956.09;;;11.41;26.14
52441;BME280;39611;46.062;8.950;2023-02-02T11:37:59;96958.47;;;11.37;25.90
52441;BME280;39611;46.062;8.950;2023-02-02T11:40:41;96949.97;;;11.56;25.88
52441;BME280;39611;46.062;8.950;2023-02-02T11:43:49;96944.94;;;11.65;25.38
52441;BME280;39611;46.062;8.950;2023-02-02T11:46:28;96937.81;;;11.50;25.89
52441;BME280;39611;46.062;8.950;2023-02-02T11:49:03;96930.13;;;11.43;26.09
52441;BME280;39611;46.062;8.950;2023-02-02T11:51:33;96934.59;;;11.68;25.67
52441;BME280;39611;46.062;8.950;2023-02-02T11:54:24;96932.19;;;11.77;25.47
52441;BME280;39611;46.062;8.950;2023-02-02T11:56:54;96932.72;;;11.79;25.33
52441;BME280;39611;46.062;8.950;2023-02-02T11:59:41;96927.72;;;11.62;25.88
52441;BME280;39611;46.062;8.950;2023-02-02T12:02:29;96924.28;;;11.62;25.42
52441;BME280;39611;46.062;8.950;2023-02-02T12:05:31;96912.09;;;11.66;25.27
52441;BME280;39611;46.062;8.950;2023-02-02T12:07:58;96915.75;;;11.90;25.12
52441;BME280;39611;46.062;8.950;2023-02-02T12:10:31;96905.66;;;11.82;25.10
52441;BME280;39611;46.062;8.950;2023-02-02T12:13:29;96913.91;;;11.80;25.09
52441;BME280;39611;46.062;8.950;2023-02-02T12:18:43;96900.91;;;11.79;26.03
52441;BME280;39611;46.062;8.950;2023-02-02T12:21:47;96894.03;;;11.78;25.62
52441;BME280;39611;46.062;8.950;2023-02-02T12:27:01;96889.69;;;12.13;24.95
52441;BME280;39611;46.062;8.950;2023-02-02T12:40:31;96906.06;;;12.30;24.74
52441;BME280;39611;46.062;8.950;2023-02-02T12:43:33;96911.13;;;12.16;24.64
52441;BME280;39611;46.062;8.950;2023-02-02T12:48:49;96910.41;;;12.06;24.63
52441;BME280;39611;46.062;8.950;2023-02-02T12:57:47;96910.38;;;12.11;25.20
52441;BME280;39611;46.062;8.950;2023-02-02T13:00:30;96905.53;;;12.28;24.31
52441;BME280;39611;46.062;8.950;2023-02-02T13:03:22;96911.56;;;12.39;24.21
52441;BME280;39611;46.062;8.950;2023-02-02T13:09:00;96888.09;;;12.17;24.72
52441;BME280;39611;46.062;8.950;2023-02-02T13:11:53;96883.84;;;12.16;25.38
52441;BME280;39611;46.062;8.950;2023-02-02T13:14:28;96889.38;;;12.24;24.81
52441;BME280;39611;46.062;8.950;2023-02-02T13:16:59;96880.13;;;12.17;25.35
52441;BME280;39611;46.062;8.950;2023-02-02T13:19:33;96878.78;;;12.19;25.55
52441;BME280;39611;46.062;8.950;2023-02-02T13:22:03;96875.00;;;12.31;25.11
52441;BME280;39611;46.062;8.950;2023-02-02T13:24:35;96871.00;;;12.38;24.91
52441;BME280;39611;46.062;8.950;2023-02-02T13:27:05;96865.06;;;12.52;24.28
52441;BME280;39611;46.062;8.950;2023-02-02T13:29:42;96865.13;;;12.41;24.75
52441;BME280;39611;46.062;8.950;2023-02-02T13:32:30;96869.91;;;12.39;24.60
52441;BME280;39611;46.062;8.950;2023-02-02T13:40:26;96862.28;;;12.72;25.14
52441;BME280;39611;46.062;8.950;2023-02-02T13:49:10;96876.38;;;12.23;25.53
52441;BME280;39611;46.062;8.950;2023-02-02T13:57:47;96893.19;;;12.53;24.88
52441;BME280;39611;46.062;8.950;2023-02-02T14:05:36;96888.44;;;12.50;24.95
52441;BME280;39611;46.062;8.950;2023-02-02T14:10:37;96890.09;;;12.40;24.71
52441;BME280;39611;46.062;8.950;2023-02-02T14:13:14;96890.03;;;12.51;24.94
52441;BME280;39611;46.062;8.950;2023-02-02T14:16:01;96887.16;;;12.42;25.04
52441;BME280;39611;46.062;8.950;2023-02-02T14:26:57;96885.03;;;12.39;25.22
52441;BME280;39611;46.062;8.950;2023-02-02T14:34:42;96893.75;;;12.44;24.90
52441;BME280;39611;46.062;8.950;2023-02-02T14:45:43;96879.09;;;12.57;24.66
52441;BME280;39611;46.062;8.950;2023-02-02T14:48:15;96879.81;;;12.68;24.50
52441;BME280;39611;46.062;8.950;2023-02-02T14:55:52;96889.97;;;12.61;25.03
52441;BME280;39611;46.062;8.950;2023-02-02T14:58:33;96899.03;;;12.50;25.20
52441;BME280;39611;46.062;8.950;2023-02-02T15:01:09;96894.34;;;12.36;25.56
52441;BME280;39611;46.062;8.950;2023-02-02T15:03:53;96900.22;;;12.28;25.89
52441;BME280;39611;46.062;8.950;2023-02-02T15:17:14;96921.25;;;12.64;24.85
52441;BME280;39611;46.062;8.950;2023-02-02T15:19:53;96919.19;;;12.56;24.59
52441;BME280;39611;46.062;8.950;2023-02-02T15:22:31;96910.50;;;12.40;25.34
52441;BME280;39611;46.062;8.950;2023-02-02T15:25:05;96915.47;;;12.57;24.60
52441;BME280;39611;46.062;8.950;2023-02-02T15:27:38;96909.47;;;12.36;25.01
52441;BME280;39611;46.062;8.950;2023-02-02T15:30:21;96921.09;;;12.45;24.83
52441;BME280;39611;46.062;8.950;2023-02-02T15:32:50;96918.25;;;12.31;25.76
52441;BME280;39611;46.062;8.950;2023-02-02T15:35:27;96911.34;;;12.35;25.00
52441;BME280;39611;46.062;8.950;2023-02-02T15:38:00;96922.00;;;12.25;25.40
52441;BME280;39611;46.062;8.950;2023-02-02T15:40:30;96923.56;;;12.26;25.83
52441;BME280;39611;46.062;8.950;2023-02-02T15:43:00;96933.69;;;12.14;26.11
52441;BME280;39611;46.062;8.950;2023-02-02T15:47:59;96943.81;;;12.12;26.07
52441;BME280;39611;46.062;8.950;2023-02-02T15:50:27;96932.69;;;12.05;25.53
52441;BME280;39611;46.062;8.950;2023-02-02T15:52:54;96939.56;;;12.00;25.93
52441;BME280;39611;46.062;8.950;2023-02-02T15:55:30;96949.94;;;11.97;25.88
52441;BME280;39611;46.062;8.950;2023-02-02T15:57:57;96957.91;;;11.92;26.04
52441;BME280;39611;46.062;8.950;2023-02-02T16:00:30;96962.66;;;11.95;25.78
52441;BME280;39611;46.062;8.950;2023-02-02T16:03:08;96952.06;;;11.79;26.46
52441;BME280;39611;46.062;8.950;2023-02-02T16:05:50;96953.38;;;11.97;26.08